Time;durP1;ratioP1;P1;durP2;ratioP2;P2;SDS_P1;SDS_P2;PMS_P1;PMS_P2;Temp;Humidity;BMP_temperature;BMP_pressure;BME280_temperature;BME280_humidity;BME280_pressure;Samples;Min_cycle;Max_cycle;Signal;HPM_P1;HPM_P2
2021/08/17 00:01:15;;;;;;;;;26.33;17.67;;;;;;;;5071542;27;45367;-89
2021/08/17 00:03:40;;;;;;;;;24.67;16.33;;;;;;;;5073021;28;45442;-88
2021/08/17 00:06:06;;;;;;;;;17.00;15.67;;;;;;;;5075312;27;46211;-89
2021/08/17 00:08:32;;;;;;;;;16.25;14.25;;;;;;;;5056392;28;45629;-90
2021/08/17 00:10:57;;;;;;;;;16.33;14.00;;;;;;;;5068247;27;45409;-90
2021/08/17 00:13:22;;;;;;;;;21.00;15.75;;;;;;;;5067472;28;45454;-90
2021/08/17 00:15:48;;;;;;;;;18.00;14.00;;;;;;;;5070173;27;46391;-89
2021/08/17 00:18:13;;;;;;;;;18.67;15.00;;;;;;;;5066352;28;45426;-89
2021/08/17 00:20:38;;;;;;;;;21.50;16.75;;;;;;;;5071194;28;45362;-89
2021/08/17 00:23:07;;;;;;;;;19.25;16.00;;;;;;;;5075261;28;45341;-89
2021/08/17 00:25:33;;;;;;;;;18.50;15.25;;;;;;;;5056437;28;47370;-89
2021/08/17 00:27:58;;;;;;;;;18.50;14.25;;;;;;;;5054977;28;45346;-89
2021/08/17 00:30:23;;;;;;;;;17.00;15.00;;;;;;;;5058051;28;45395;-90
2021/08/17 00:32:48;;;;;;;;;19.25;15.25;;;;;;;;5071088;28;45494;-89
2021/08/17 00:35:14;;;;;;;;;18.67;15.00;;;;;;;;5084874;27;46090;-89
2021/08/17 00:37:39;;;;;;;;;20.67;16.33;;;;;;;;5048583;28;45512;-89
2021/08/17 00:40:04;;;;;;;;;22.67;15.33;;;;;;;;5066869;27;45374;-89
2021/08/17 00:42:38;;;;;;;;;25.75;19.25;;;;;;;;5070122;27;45521;-89
2021/08/17 00:45:04;;;;;;;;;26.25;14.00;;;;;;;;5073865;27;45411;-89
2021/08/17 00:47:29;;;;;;;;;22.75;17.25;;;;;;;;5076428;27;45431;-88
2021/08/17 00:49:54;;;;;;;;;23.75;19.75;;;;;;;;5058928;27;45497;-89
2021/08/17 00:52:19;;;;;;;;;21.67;17.67;;;;;;;;5050835;28;45291;-89
2021/08/17 00:54:45;;;;;;;;;31.67;22.00;;;;;;;;5054188;27;48555;-88
2021/08/17 00:57:14;;;;;;;;;19.33;16.00;;;;;;;;5062818;28;45410;-89
2021/08/17 00:59:39;;;;;;;;;25.75;19.50;;;;;;;;5067714;27;45400;-89
2021/08/17 01:02:05;;;;;;;;;21.00;15.75;;;;;;;;5076693;27;45384;-89
2021/08/17 01:04:31;;;;;;;;;21.33;18.33;;;;;;;;5064343;27;45324;-89
2021/08/17 01:06:56;;;;;;;;;19.00;15.50;;;;;;;;5059500;28;45972;-89
2021/08/17 01:09:22;;;;;;;;;31.00;19.00;;;;;;;;5056607;28;45399;-88
2021/08/17 01:11:48;;;;;;;;;22.33;15.67;;;;;;;;5069990;27;45260;-88
2021/08/17 01:14:16;;;;;;;;;16.50;10.50;;;;;;;;5071853;27;46670;-86
2021/08/17 01:16:42;;;;;;;;;21.25;15.75;;;;;;;;5069226;28;45343;-89
2021/08/17 01:19:08;;;;;;;;;18.00;15.50;;;;;;;;5051682;28;45454;-88
2021/08/17 01:21:34;;;;;;;;;14.75;14.50;;;;;;;;5071180;28;46799;-89
2021/08/17 01:24:00;;;;;;;;;20.00;14.00;;;;;;;;5078100;27;45630;-88
2021/08/17 01:26:25;;;;;;;;;21.00;17.25;;;;;;;;5075225;27;45481;-89
2021/08/17 01:28:50;;;;;;;;;21.67;15.67;;;;;;;;5076366;27;45497;-89
2021/08/17 01:31:15;;;;;;;;;18.33;17.67;;;;;;;;5075046;27;45421;-88
2021/08/17 01:33:41;;;;;;;;;20.00;13.33;;;;;;;;5059248;27;46234;-89
2021/08/17 01:36:06;;;;;;;;;22.00;13.67;;;;;;;;5072246;27;45217;-89
2021/08/17 01:38:31;;;;;;;;;18.00;14.33;;;;;;;;5080656;27;45377;-89
2021/08/17 01:40:56;;;;;;;;;19.25;15.00;;;;;;;;5067836;27;45682;-89
2021/08/17 01:43:22;;;;;;;;;19.00;14.00;;;;;;;;5050233;28;47371;-87
2021/08/17 01:45:54;;;;;;;;;14.00;12.50;;;;;;;;5050232;28;45840;-88
2021/08/17 01:48:21;;;;;;;;;16.75;13.50;;;;;;;;5076080;27;45425;-88
2021/08/17 01:50:46;;;;;;;;;15.00;13.25;;;;;;;;5057765;28;45347;-89
2021/08/17 01:53:11;;;;;;;;;21.00;14.00;;;;;;;;5058576;28;47083;-89
2021/08/17 01:55:36;;;;;;;;;17.67;15.00;;;;;;;;5082664;27;45352;-89
2021/08/17 01:58:02;;;;;;;;;22.67;16.67;;;;;;;;5070866;27;45534;-89
2021/08/17 02:00:27;;;;;;;;;23.00;14.75;;;;;;;;5068169;27;48590;-89
2021/08/17 02:02:53;;;;;;;;;22.50;15.25;;;;;;;;5074736;28;45469;-88
2021/08/17 02:05:21;;;;;;;;;16.33;14.67;;;;;;;;5072877;27;45331;-88
2021/08/17 02:07:46;;;;;;;;;23.25;14.75;;;;;;;;5064432;28;45642;-89
2021/08/17 02:10:11;;;;;;;;;22.75;14.75;;;;;;;;5075478;28;45434;-87
2021/08/17 02:12:36;;;;;;;;;18.75;12.50;;;;;;;;5058604;28;47929;-88
2021/08/17 02:15:02;;;;;;;;;20.00;16.33;;;;;;;;5073902;27;45578;-89
2021/08/17 02:17:27;;;;;;;;;19.50;11.75;;;;;;;;5073388;27;45628;-89
2021/08/17 02:19:52;;;;;;;;;16.00;13.33;;;;;;;;5072197;28;45428;-88
2021/08/17 02:22:17;;;;;;;;;13.67;11.67;;;;;;;;5068424;28;46611;-89
2021/08/17 02:24:42;;;;;;;;;26.00;17.67;;;;;;;;5056037;27;48936;-90
2021/08/17 02:27:08;;;;;;;;;19.33;13.67;;;;;;;;5075041;27;45802;-88
2021/08/17 02:29:33;;;;;;;;;11.33;11.33;;;;;;;;5076818;27;45394;-87
2021/08/17 02:31:58;;;;;;;;;21.33;15.67;;;;;;;;5069084;27;45948;-89
2021/08/17 02:34:23;;;;;;;;;17.00;13.33;;;;;;;;5067581;27;45929;-89
2021/08/17 02:36:48;;;;;;;;;14.33;12.33;;;;;;;;5072639;27;45453;-89
2021/08/17 02:39:14;;;;;;;;;16.67;12.33;;;;;;;;5070713;27;45356;-89
2021/08/17 02:41:39;;;;;;;;;20.33;13.00;;;;;;;;5067401;27;46152;-85
2021/08/17 02:44:04;;;;;;;;;20.00;13.33;;;;;;;;5072069;27;45297;-90
2021/08/17 02:46:29;;;;;;;;;22.25;16.75;;;;;;;;5073396;27;45320;-88
2021/08/17 02:48:54;;;;;;;;;15.67;13.00;;;;;;;;5072374;27;50746;-89
2021/08/17 02:51:20;;;;;;;;;18.67;14.00;;;;;;;;5075149;27;46444;-88
2021/08/17 02:53:45;;;;;;;;;20.75;17.75;;;;;;;;5068251;28;45323;-88
2021/08/17 02:56:10;;;;;;;;;18.33;14.33;;;;;;;;5071104;27;45490;-91
2021/08/17 02:58:36;;;;;;;;;25.33;15.33;;;;;;;;5071990;27;45360;-88
2021/08/17 03:01:01;;;;;;;;;16.25;10.25;;;;;;;;5073307;28;45508;-89
2021/08/17 03:03:26;;;;;;;;;15.33;14.67;;;;;;;;5066804;27;45437;-89
2021/08/17 03:05:51;;;;;;;;;22.33;15.33;;;;;;;;5073521;27;45445;-88
2021/08/17 03:08:17;;;;;;;;;18.33;14.00;;;;;;;;5067320;28;45392;-89
2021/08/17 03:10:42;;;;;;;;;19.50;13.25;;;;;;;;5054282;28;48493;-89
2021/08/17 03:13:07;;;;;;;;;17.67;10.33;;;;;;;;5054684;28;45628;-88
2021/08/17 03:15:33;;;;;;;;;15.00;12.50;;;;;;;;5066548;27;45541;-89
2021/08/17 03:18:00;;;;;;;;;16.00;13.50;;;;;;;;5083927;27;45514;-88
2021/08/17 03:20:25;;;;;;;;;19.25;12.50;;;;;;;;5065698;28;45714;-89
2021/08/17 03:22:50;;;;;;;;;19.75;15.50;;;;;;;;5068780;28;45364;-87
2021/08/17 03:25:16;;;;;;;;;28.00;17.33;;;;;;;;5070628;27;45685;-86
2021/08/17 03:27:41;;;;;;;;;21.67;16.00;;;;;;;;5067122;28;45684;-87
2021/08/17 03:30:07;;;;;;;;;18.75;16.25;;;;;;;;5056246;28;47539;-88
2021/08/17 03:32:32;;;;;;;;;17.25;15.00;;;;;;;;5049835;28;45411;-88
2021/08/17 03:34:58;;;;;;;;;17.33;14.00;;;;;;;;5073751;27;45821;-88
2021/08/17 03:37:23;;;;;;;;;16.00;13.00;;;;;;;;5069636;28;45747;-88
2021/08/17 03:39:48;;;;;;;;;19.67;15.67;;;;;;;;5056029;27;48323;-88
2021/08/17 03:42:13;;;;;;;;;22.67;18.33;;;;;;;;5065762;28;45471;-87
2021/08/17 03:44:38;;;;;;;;;19.75;14.25;;;;;;;;5065045;27;45345;-86
2021/08/17 03:47:04;;;;;;;;;18.67;17.00;;;;;;;;5065178;28;45337;-88
2021/08/17 03:49:29;;;;;;;;;16.50;11.25;;;;;;;;5065665;27;45537;-84
2021/08/17 03:51:54;;;;;;;;;20.00;13.33;;;;;;;;5071225;28;45649;-89
2021/08/17 03:54:19;;;;;;;;;17.00;13.67;;;;;;;;5072659;28;45551;-86
2021/08/17 03:56:44;;;;;;;;;17.67;13.00;;;;;;;;5066051;27;46955;-88
2021/08/17 03:59:10;;;;;;;;;26.00;16.33;;;;;;;;5065085;28;46347;-87
2021/08/17 04:01:35;;;;;;;;;20.67;14.33;;;;;;;;5067988;28;45464;-86
2021/08/17 04:04:00;;;;;;;;;15.00;14.00;;;;;;;;5067999;28;45446;-88
2021/08/17 04:06:25;;;;;;;;;14.00;11.33;;;;;;;;5074932;27;45577;-83
2021/08/17 04:08:52;;;;;;;;;21.00;18.33;;;;;;;;5072476;28;45566;-88
2021/08/17 04:11:18;;;;;;;;;13.50;11.25;;;;;;;;5073596;27;45516;-89
2021/08/17 04:13:43;;;;;;;;;15.25;12.50;;;;;;;;5054360;28;45404;-88
2021/08/17 04:16:08;;;;;;;;;18.67;15.67;;;;;;;;5071782;27;45530;-87
2021/08/17 04:18:34;;;;;;;;;22.00;16.33;;;;;;;;5071391;28;45843;-88
2021/08/17 04:20:59;;;;;;;;;14.50;12.25;;;;;;;;5071149;28;45363;-89
2021/08/17 04:23:25;;;;;;;;;19.67;15.67;;;;;;;;5071724;28;45469;-89
2021/08/17 04:25:50;;;;;;;;;16.33;12.33;;;;;;;;5066852;27;46700;-88
2021/08/17 04:28:15;;;;;;;;;21.25;14.00;;;;;;;;5073129;28;45465;-84
2021/08/17 04:30:40;;;;;;;;;21.00;14.33;;;;;;;;5068140;28;45478;-88
2021/08/17 04:33:06;;;;;;;;;18.67;12.33;;;;;;;;5076360;28;45535;-89
2021/08/17 04:35:31;;;;;;;;;16.00;11.67;;;;;;;;5071292;27;45531;-88
2021/08/17 04:37:56;;;;;;;;;16.67;11.67;;;;;;;;5065973;27;46157;-89
2021/08/17 04:40:21;;;;;;;;;17.00;14.67;;;;;;;;5072603;28;45549;-88
2021/08/17 04:42:46;;;;;;;;;20.33;14.33;;;;;;;;5069069;28;45556;-88
2021/08/17 04:45:13;;;;;;;;;16.25;11.75;;;;;;;;5060625;27;45587;-84
2021/08/17 04:47:45;;;;;;;;;12.75;10.25;;;;;;;;5058182;28;47219;-88
2021/08/17 04:50:10;;;;;;;;;16.75;12.25;;;;;;;;5056140;28;45499;-88
2021/08/17 04:52:36;;;;;;;;;15.33;13.67;;;;;;;;5055772;28;45552;-87
2021/08/17 04:55:01;;;;;;;;;14.67;12.33;;;;;;;;5072179;27;45430;-88
2021/08/17 04:57:26;;;;;;;;;19.33;14.00;;;;;;;;5067797;28;48304;-88
2021/08/17 04:59:51;;;;;;;;;17.67;12.67;;;;;;;;5069762;28;45370;-90
2021/08/17 05:02:17;;;;;;;;;19.00;13.00;;;;;;;;5072787;27;45355;-87
2021/08/17 05:04:42;;;;;;;;;18.00;13.00;;;;;;;;5071524;27;45284;-86
2021/08/17 05:07:07;;;;;;;;;16.00;13.00;;;;;;;;5073231;27;45382;-83
2021/08/17 05:09:33;;;;;;;;;19.00;16.00;;;;;;;;5069116;28;45440;-87
2021/08/17 05:11:59;;;;;;;;;18.00;14.00;;;;;;;;5068118;28;46575;-88
2021/08/17 05:14:24;;;;;;;;;16.00;13.25;;;;;;;;5066694;28;45442;-89
2021/08/17 05:16:51;;;;;;;;;17.00;14.33;;;;;;;;5045173;28;47167;-87
2021/08/17 05:19:16;;;;;;;;;23.25;13.75;;;;;;;;5072812;28;45814;-82
2021/08/17 05:21:41;;;;;;;;;16.33;11.00;;;;;;;;5069445;27;45380;-89
2021/08/17 05:24:07;;;;;;;;;20.33;14.67;;;;;;;;5073675;28;45227;-89
2021/08/17 05:26:32;;;;;;;;;12.50;9.25;;;;;;;;5064417;27;45446;-88
2021/08/17 05:28:57;;;;;;;;;16.33;13.00;;;;;;;;5063631;27;45295;-88
2021/08/17 05:31:22;;;;;;;;;15.00;13.33;;;;;;;;5068277;28;45566;-89
2021/08/17 05:33:48;;;;;;;;;13.33;13.33;;;;;;;;5068319;27;45485;-88
2021/08/17 05:36:13;;;;;;;;;13.00;12.00;;;;;;;;5057524;28;47083;-88
2021/08/17 05:38:38;;;;;;;;;15.00;12.33;;;;;;;;5068595;27;45463;-89
2021/08/17 05:41:03;;;;;;;;;22.67;14.00;;;;;;;;5067142;27;45476;-88
2021/08/17 05:43:28;;;;;;;;;17.67;12.00;;;;;;;;5074175;28;45309;-88
2021/08/17 05:45:54;;;;;;;;;19.33;12.67;;;;;;;;5075705;27;45492;-88
2021/08/17 05:48:19;;;;;;;;;19.00;11.67;;;;;;;;5070470;27;45365;-88
2021/08/17 05:50:44;;;;;;;;;14.33;10.00;;;;;;;;5069101;27;45408;-88
2021/08/17 05:53:09;;;;;;;;;17.33;12.67;;;;;;;;5050648;28;45908;-88
2021/08/17 05:55:34;;;;;;;;;17.75;12.00;;;;;;;;5055147;28;48248;-89
2021/08/17 05:58:02;;;;;;;;;16.67;13.00;;;;;;;;5051835;28;45866;-89
2021/08/17 06:00:27;;;;;;;;;15.00;10.50;;;;;;;;5068477;27;45398;-88
2021/08/17 06:02:53;;;;;;;;;18.25;12.50;;;;;;;;5065066;27;45276;-88
2021/08/17 06:05:18;;;;;;;;;15.75;13.75;;;;;;;;5072392;27;45360;-88
2021/08/17 06:07:44;;;;;;;;;18.50;11.50;;;;;;;;5058193;28;45699;-88
2021/08/17 06:10:10;;;;;;;;;21.75;13.25;;;;;;;;5069273;27;45712;-87
2021/08/17 06:12:35;;;;;;;;;17.75;12.00;;;;;;;;5074098;27;45759;-88
2021/08/17 06:15:00;;;;;;;;;16.33;13.33;;;;;;;;5054666;27;47490;-89
2021/08/17 06:17:25;;;;;;;;;17.33;11.00;;;;;;;;5055824;28;45448;-88
2021/08/17 06:19:50;;;;;;;;;14.33;10.33;;;;;;;;5058351;28;46748;-87
2021/08/17 06:22:15;;;;;;;;;11.33;10.67;;;;;;;;5067875;28;45550;-89
2021/08/17 06:24:41;;;;;;;;;15.00;11.33;;;;;;;;5072403;28;45512;-86
2021/08/17 06:27:06;;;;;;;;;14.50;10.50;;;;;;;;5069047;27;45318;-84
2021/08/17 06:29:31;;;;;;;;;14.67;10.00;;;;;;;;5067987;27;45559;-89
2021/08/17 06:31:57;;;;;;;;;11.67;10.33;;;;;;;;5072160;27;45458;-88
2021/08/17 06:34:22;;;;;;;;;15.00;9.00;;;;;;;;5066875;27;46037;-88
2021/08/17 06:36:47;;;;;;;;;13.00;9.67;;;;;;;;5055090;28;45396;-88
2021/08/17 06:39:12;;;;;;;;;12.67;9.33;;;;;;;;5053673;28;45468;-88
2021/08/17 06:41:38;;;;;;;;;14.75;10.50;;;;;;;;5069112;28;45510;-89
2021/08/17 06:44:03;;;;;;;;;11.33;8.33;;;;;;;;5055510;27;48443;-89
2021/08/17 06:46:28;;;;;;;;;10.50;8.50;;;;;;;;5056323;28;45397;-89
2021/08/17 06:48:54;;;;;;;;;11.67;10.00;;;;;;;;5066664;27;45364;-89
2021/08/17 06:51:19;;;;;;;;;13.50;11.75;;;;;;;;5076010;27;45532;-89
2021/08/17 06:53:45;;;;;;;;;6.00;3.50;;;;;;;;5076594;27;45454;-89
2021/08/17 06:56:10;;;;;;;;;12.00;11.67;;;;;;;;5067733;28;45481;-90
2021/08/17 06:58:35;;;;;;;;;9.67;9.33;;;;;;;;5068129;27;45527;-90
2021/08/17 07:01:02;;;;;;;;;14.00;8.00;;;;;;;;5065800;27;45503;-90
2021/08/17 07:03:27;;;;;;;;;14.00;9.25;;;;;;;;5055187;28;47285;-90
2021/08/17 07:05:53;;;;;;;;;8.00;7.25;;;;;;;;5051947;28;45397;-88
2021/08/17 07:08:18;;;;;;;;;9.75;8.25;;;;;;;;5057695;27;45473;-89
2021/08/17 07:10:44;;;;;;;;;14.33;12.00;;;;;;;;5070889;27;45433;-86
2021/08/17 07:13:09;;;;;;;;;11.25;10.00;;;;;;;;5069298;28;45495;-86
2021/08/17 07:15:35;;;;;;;;;8.75;7.50;;;;;;;;5039997;27;45410;-83
2021/08/17 07:18:00;;;;;;;;;9.00;9.00;;;;;;;;5059374;27;45574;-85
2021/08/17 07:20:25;;;;;;;;;11.33;8.00;;;;;;;;5066729;28;45424;-88
2021/08/17 07:22:50;;;;;;;;;10.33;8.00;;;;;;;;5051855;28;48410;-88
2021/08/17 07:25:15;;;;;;;;;11.67;9.67;;;;;;;;5070879;27;45299;-88
2021/08/17 07:27:41;;;;;;;;;14.75;8.00;;;;;;;;5053084;28;45423;-86
2021/08/17 07:30:07;;;;;;;;;12.67;9.67;;;;;;;;5078274;27;45445;-89
2021/08/17 07:32:32;;;;;;;;;14.75;10.75;;;;;;;;5061187;28;45509;-88
2021/08/17 07:34:58;;;;;;;;;10.75;10.25;;;;;;;;5065842;28;45287;-88
2021/08/17 07:37:23;;;;;;;;;10.75;10.50;;;;;;;;5070554;28;45369;-88
2021/08/17 07:39:48;;;;;;;;;11.75;7.75;;;;;;;;5051031;28;45462;-82
2021/08/17 07:42:14;;;;;;;;;13.00;10.00;;;;;;;;5058581;28;47346;-87
2021/08/17 07:44:39;;;;;;;;;10.25;8.50;;;;;;;;5066227;28;45417;-88
2021/08/17 07:47:04;;;;;;;;;11.67;9.00;;;;;;;;5071002;28;45328;-89
2021/08/17 07:49:29;;;;;;;;;14.33;7.67;;;;;;;;5068220;27;45260;-88
2021/08/17 07:51:54;;;;;;;;;12.00;8.00;;;;;;;;5072500;28;45460;-86
2021/08/17 07:54:20;;;;;;;;;10.75;8.25;;;;;;;;5073346;28;45474;-86
2021/08/17 07:56:46;;;;;;;;;8.00;7.50;;;;;;;;5070458;28;45642;-88
2021/08/17 07:59:11;;;;;;;;;6.75;6.75;;;;;;;;5066744;27;45500;-86
2021/08/17 08:01:37;;;;;;;;;11.00;9.25;;;;;;;;5076717;27;45685;-89
2021/08/17 08:04:02;;;;;;;;;9.00;7.00;;;;;;;;5058462;27;45506;-88
2021/08/17 08:06:27;;;;;;;;;11.00;8.67;;;;;;;;5062637;27;45367;-89
2021/08/17 08:08:52;;;;;;;;;17.00;10.33;;;;;;;;5066672;28;45399;-88
2021/08/17 08:11:18;;;;;;;;;14.50;10.75;;;;;;;;5066434;27;45795;-89
2021/08/17 08:13:43;;;;;;;;;9.00;7.75;;;;;;;;5047674;28;45822;-88
2021/08/17 08:16:08;;;;;;;;;11.00;8.33;;;;;;;;5069507;28;45453;-87
2021/08/17 08:18:33;;;;;;;;;12.33;8.00;;;;;;;;5066789;27;45369;-86
2021/08/17 08:20:58;;;;;;;;;13.00;10.33;;;;;;;;5059933;27;46621;-89
2021/08/17 08:23:24;;;;;;;;;11.00;7.67;;;;;;;;5071406;28;45501;-89
2021/08/17 08:25:49;;;;;;;;;8.00;7.00;;;;;;;;5056537;27;46437;-89
2021/08/17 08:28:14;;;;;;;;;11.25;8.00;;;;;;;;5067414;28;45534;-90
2021/08/17 08:30:40;;;;;;;;;13.00;8.25;;;;;;;;5070029;27;46033;-88
2021/08/17 08:33:05;;;;;;;;;11.25;8.50;;;;;;;;5068477;27;45470;-87
2021/08/17 08:35:30;;;;;;;;;8.33;7.00;;;;;;;;5065106;27;49636;-87
2021/08/17 08:37:56;;;;;;;;;10.25;8.25;;;;;;;;5061222;28;45836;-87
2021/08/17 08:40:23;;;;;;;;;9.50;8.25;;;;;;;;5069348;28;48568;-87
2021/08/17 08:42:49;;;;;;;;;12.50;8.75;;;;;;;;5082004;27;45706;-86
2021/08/17 08:45:14;;;;;;;;;8.50;7.75;;;;;;;;5067722;27;45448;-87
2021/08/17 08:47:40;;;;;;;;;13.00;8.00;;;;;;;;5065294;27;45324;-87
2021/08/17 08:50:06;;;;;;;;;13.75;10.00;;;;;;;;5064791;27;45622;-88
2021/08/17 08:52:31;;;;;;;;;8.00;6.50;;;;;;;;5072099;27;45355;-85
2021/08/17 08:54:57;;;;;;;;;8.00;6.00;;;;;;;;5054033;28;45557;-86
2021/08/17 08:57:22;;;;;;;;;8.00;8.00;;;;;;;;5051940;27;45580;-88
2021/08/17 08:59:47;;;;;;;;;9.50;7.75;;;;;;;;5073963;28;45918;-88
2021/08/17 09:02:14;;;;;;;;;7.33;7.00;;;;;;;;5068437;27;45692;-85
2021/08/17 09:04:48;;;;;;;;;7.25;5.75;;;;;;;;5069181;28;45529;-87
2021/08/17 09:07:13;;;;;;;;;8.50;7.25;;;;;;;;5071205;27;45631;-87
2021/08/17 09:09:39;;;;;;;;;8.00;5.33;;;;;;;;5049490;28;47351;-88
2021/08/17 09:12:04;;;;;;;;;6.00;6.00;;;;;;;;5078666;27;45457;-88
2021/08/17 09:14:31;;;;;;;;;7.50;5.75;;;;;;;;5069855;27;45689;-89
2021/08/17 09:16:58;;;;;;;;;6.25;5.00;;;;;;;;5055285;28;45726;-86
2021/08/17 09:19:28;;;;;;;;;6.75;6.00;;;;;;;;5053054;28;48849;-87
2021/08/17 09:21:53;;;;;;;;;6.50;6.00;;;;;;;;5068115;27;45501;-87
2021/08/17 09:24:21;;;;;;;;;9.25;8.00;;;;;;;;5071898;28;45620;-88
2021/08/17 09:26:51;;;;;;;;;9.50;6.00;;;;;;;;5052766;28;45610;-88
2021/08/17 09:29:24;;;;;;;;;8.25;6.75;;;;;;;;5052492;27;47463;-89
2021/08/17 09:31:50;;;;;;;;;9.75;6.00;;;;;;;;5050723;28;46094;-90
2021/08/17 09:34:15;;;;;;;;;8.25;5.25;;;;;;;;5068398;27;45454;-88
2021/08/17 09:36:42;;;;;;;;;9.33;7.33;;;;;;;;5073802;28;45384;-90
2021/08/17 09:39:08;;;;;;;;;8.50;5.50;;;;;;;;5070805;28;45448;-88
2021/08/17 09:41:33;;;;;;;;;12.50;7.00;;;;;;;;5067700;27;45538;-85
2021/08/17 09:44:07;;;;;;;;;7.00;6.00;;;;;;;;5048055;28;45493;-88
2021/08/17 09:46:33;;;;;;;;;7.50;5.00;;;;;;;;5072702;27;45592;-89
2021/08/17 09:49:18;;;;;;;;;11.00;7.00;;;;;;;;5054387;28;58290;-90
2021/08/17 09:51:43;;;;;;;;;6.00;6.00;;;;;;;;5067558;27;51231;-86
2021/08/17 09:54:13;;;;;;;;;8.00;5.75;;;;;;;;5061815;28;45492;-89
2021/08/17 09:56:38;;;;;;;;;13.00;8.75;;;;;;;;5068760;27;49389;-88
2021/08/17 09:59:05;;;;;;;;;10.00;7.00;;;;;;;;5065852;27;46362;-91
2021/08/17 10:01:30;;;;;;;;;8.25;6.50;;;;;;;;5066136;27;45303;-87
2021/08/17 10:03:57;;;;;;;;;8.50;8.00;;;;;;;;5075307;27;45607;-89
2021/08/17 10:06:22;;;;;;;;;6.50;6.50;;;;;;;;5068763;27;45435;-87
2021/08/17 10:08:48;;;;;;;;;8.75;7.50;;;;;;;;5054056;28;46269;-87
2021/08/17 10:11:13;;;;;;;;;7.00;6.50;;;;;;;;5046305;28;45562;-88
2021/08/17 10:13:39;;;;;;;;;7.25;7.00;;;;;;;;5067898;27;45427;-87
2021/08/17 10:16:04;;;;;;;;;9.50;9.00;;;;;;;;5071415;27;45641;-88
2021/08/17 10:18:36;;;;;;;;;7.00;7.00;;;;;;;;5075832;27;45422;-87
2021/08/17 10:21:02;;;;;;;;;10.25;8.50;;;;;;;;5055583;28;45758;-84
2021/08/17 10:23:28;;;;;;;;;8.25;7.00;;;;;;;;5068605;27;45606;-88
2021/08/17 10:25:56;;;;;;;;;13.00;11.00;;;;;;;;5063621;27;45477;-89
2021/08/17 10:28:32;;;;;;;;;11.50;10.50;;;;;;;;5063902;28;46097;-90
2021/08/17 10:30:58;;;;;;;;;11.25;10.50;;;;;;;;5053627;28;45479;-89
2021/08/17 10:33:56;;;;;;;;;18.50;16.50;;;;;;;;5081363;27;45593;-92
2021/08/17 10:36:42;;;;;;;;;15.50;11.00;;;;;;;;5016663;28;45372;-90
2021/08/17 10:39:16;;;;;;;;;9.75;8.50;;;;;;;;5013859;28;45418;-90
2021/08/17 10:41:41;;;;;;;;;15.25;11.25;;;;;;;;5012550;28;45806;-91
2021/08/17 10:44:08;;;;;;;;;12.25;11.50;;;;;;;;5013636;28;45496;-91
2021/08/17 10:46:39;;;;;;;;;11.25;6.75;;;;;;;;4997400;28;45863;-92
2021/08/17 10:49:22;;;;;;;;;16.00;8.00;;;;;;;;5011865;28;46066;-91
2021/08/17 10:51:52;;;;;;;;;10.50;7.50;;;;;;;;5011847;28;45819;-92
2021/08/17 10:54:17;;;;;;;;;10.75;7.00;;;;;;;;5010579;28;45472;-89
2021/08/17 10:56:43;;;;;;;;;11.50;9.00;;;;;;;;5012855;28;45542;-90
2021/08/17 10:59:08;;;;;;;;;6.00;6.00;;;;;;;;5012671;28;45765;-91
2021/08/17 11:01:46;;;;;;;;;10.33;6.00;;;;;;;;5008644;28;45848;-93
2021/08/17 11:04:17;;;;;;;;;11.00;6.75;;;;;;;;4996675;28;46664;-87
2021/08/17 11:06:44;;;;;;;;;6.00;4.75;;;;;;;;5005232;28;45377;-91
2021/08/17 11:09:14;;;;;;;;;6.50;6.50;;;;;;;;4995657;28;46475;-91
2021/08/17 11:11:41;;;;;;;;;5.75;5.00;;;;;;;;5035239;27;45476;-92
2021/08/17 11:14:08;;;;;;;;;8.50;7.25;;;;;;;;5065832;27;45383;-93
2021/08/17 11:16:39;;;;;;;;;6.25;5.75;;;;;;;;5065551;27;46432;-90
2021/08/17 11:19:04;;;;;;;;;7.00;5.00;;;;;;;;5056608;27;46673;-93
2021/08/17 11:21:37;;;;;;;;;7.50;5.50;;;;;;;;5080503;27;45410;-92
2021/08/17 11:24:10;;;;;;;;;5.50;5.50;;;;;;;;5078356;27;45500;-92
2021/08/17 11:26:36;;;;;;;;;5.75;5.00;;;;;;;;5051065;27;45637;-92
2021/08/17 11:29:02;;;;;;;;;5.50;5.00;;;;;;;;5074646;27;48299;-92
2021/08/17 11:31:27;;;;;;;;;6.00;4.50;;;;;;;;5052181;28;45582;-92
2021/08/17 11:34:11;;;;;;;;;5.00;5.00;;;;;;;;5072586;27;45545;-91
2021/08/17 11:36:36;;;;;;;;;8.75;6.00;;;;;;;;5066493;27;45430;-91
2021/08/17 11:39:22;;;;;;;;;3.00;3.00;;;;;;;;5059314;27;45610;-90
2021/08/17 11:41:48;;;;;;;;;6.50;5.25;;;;;;;;5044489;28;45730;-89
2021/08/17 11:44:13;;;;;;;;;7.75;5.50;;;;;;;;5065130;28;46035;-88
2021/08/17 11:46:39;;;;;;;;;5.25;5.25;;;;;;;;5045003;28;45478;-89
2021/08/17 11:49:26;;;;;;;;;5.25;5.00;;;;;;;;5059172;27;45546;-89
2021/08/17 11:52:02;;;;;;;;;6.50;6.50;;;;;;;;5068138;27;45538;-89
2021/08/17 11:54:27;;;;;;;;;5.50;5.50;;;;;;;;5070215;27;45423;-89
2021/08/17 11:57:00;;;;;;;;;6.50;5.25;;;;;;;;5052522;28;45488;-86
2021/08/17 11:59:35;;;;;;;;;8.00;5.50;;;;;;;;5048771;27;48289;-91
2021/08/17 12:02:01;;;;;;;;;7.25;5.50;;;;;;;;5058118;27;45442;-88
2021/08/17 12:04:26;;;;;;;;;7.75;6.00;;;;;;;;5050917;28;45804;-87
2021/08/17 12:07:10;;;;;;;;;5.75;4.00;;;;;;;;5054884;28;45549;-88
2021/08/17 12:09:37;;;;;;;;;4.00;4.00;;;;;;;;5047119;27;48362;-86
2021/08/17 12:12:03;;;;;;;;;4.00;4.00;;;;;;;;5050023;28;45401;-87
2021/08/17 12:14:28;;;;;;;;;6.75;5.25;;;;;;;;5061534;27;45534;-85
2021/08/17 12:16:56;;;;;;;;;7.00;5.00;;;;;;;;5050413;28;45572;-85
2021/08/17 12:19:22;;;;;;;;;5.00;5.00;;;;;;;;5058332;28;45793;-86
2021/08/17 12:21:47;;;;;;;;;5.00;3.50;;;;;;;;5047389;28;45415;-85
2021/08/17 12:24:39;;;;;;;;;3.75;3.75;;;;;;;;5070189;28;45425;-86
2021/08/17 12:27:04;;;;;;;;;3.00;3.00;;;;;;;;5062596;27;45281;-87
2021/08/17 12:29:40;;;;;;;;;7.00;5.00;;;;;;;;5050113;28;47254;-84
2021/08/17 12:32:16;;;;;;;;;3.25;3.25;;;;;;;;5067813;27;45372;-85
2021/08/17 12:34:42;;;;;;;;;9.00;4.00;;;;;;;;5069525;27;45518;-85
2021/08/17 12:37:07;;;;;;;;;7.25;4.25;;;;;;;;5070908;27;45590;-85
2021/08/17 12:39:36;;;;;;;;;4.67;3.33;;;;;;;;5073529;28;45291;-85
2021/08/17 12:42:06;;;;;;;;;3.50;3.50;;;;;;;;5065785;27;45800;-85
2021/08/17 12:44:31;;;;;;;;;4.25;2.75;;;;;;;;5048423;28;45440;-86
2021/08/17 12:47:01;;;;;;;;;5.33;3.00;;;;;;;;5069602;28;45754;-87
2021/08/17 12:49:37;;;;;;;;;4.00;3.00;;;;;;;;5055645;28;47351;-83
2021/08/17 12:52:17;;;;;;;;;4.25;4.00;;;;;;;;5054318;28;45800;-84
2021/08/17 12:54:43;;;;;;;;;3.25;3.25;;;;;;;;5075816;27;45466;-86
2021/08/17 12:57:08;;;;;;;;;2.50;2.25;;;;;;;;5079765;27;45649;-89
2021/08/17 12:59:33;;;;;;;;;6.00;4.67;;;;;;;;5076804;27;45921;-88
2021/08/17 13:01:58;;;;;;;;;5.67;4.00;;;;;;;;5049824;27;45477;-93
2021/08/17 13:04:24;;;;;;;;;3.67;3.67;;;;;;;;5076642;27;45562;-89
2021/08/17 13:06:49;;;;;;;;;4.33;2.00;;;;;;;;5073606;27;45444;-88
2021/08/17 13:09:14;;;;;;;;;3.00;3.00;;;;;;;;5071374;27;46169;-90
2021/08/17 13:11:39;;;;;;;;;2.00;1.00;;;;;;;;5069523;27;45498;-89
2021/08/17 13:14:04;;;;;;;;;2.33;2.33;;;;;;;;5068905;27;45533;-89
2021/08/17 13:16:30;;;;;;;;;2.00;2.00;;;;;;;;5048433;28;45426;-90
2021/08/17 13:18:55;;;;;;;;;3.00;3.00;;;;;;;;5070833;27;46140;-88
2021/08/17 13:21:20;;;;;;;;;4.75;3.00;;;;;;;;5050289;27;45927;-90
2021/08/17 13:23:46;;;;;;;;;6.00;3.00;;;;;;;;5064817;28;45883;-90
2021/08/17 13:26:11;;;;;;;;;6.00;2.75;;;;;;;;5077990;27;45979;-89
2021/08/17 13:28:36;;;;;;;;;3.00;2.00;;;;;;;;5058672;27;48267;-89
2021/08/17 13:31:01;;;;;;;;;2.33;2.00;;;;;;;;5080445;27;45484;-91
2021/08/17 13:33:27;;;;;;;;;4.00;3.25;;;;;;;;5059273;27;45666;-91
2021/08/17 13:35:52;;;;;;;;;5.00;4.00;;;;;;;;5070967;27;45521;-90
2021/08/17 13:38:17;;;;;;;;;3.00;3.00;;;;;;;;5048402;27;46219;-89
2021/08/17 13:40:44;;;;;;;;;5.67;5.00;;;;;;;;5065379;27;45563;-90
2021/08/17 13:43:09;;;;;;;;;3.00;3.00;;;;;;;;5060928;28;45474;-81
2021/08/17 13:45:34;;;;;;;;;5.00;4.00;;;;;;;;5073673;27;45399;-91
2021/08/17 13:47:59;;;;;;;;;7.00;3.50;;;;;;;;5073226;28;45473;-89
2021/08/17 13:50:24;;;;;;;;;5.00;4.67;;;;;;;;5074466;28;45581;-90
2021/08/17 13:52:50;;;;;;;;;3.00;3.00;;;;;;;;5058808;28;45442;-90
2021/08/17 13:55:15;;;;;;;;;6.00;4.00;;;;;;;;5072803;27;45589;-90
2021/08/17 13:57:40;;;;;;;;;7.00;4.67;;;;;;;;5052695;28;48252;-91
2021/08/17 14:00:06;;;;;;;;;5.00;4.00;;;;;;;;5063097;27;46002;-89
2021/08/17 14:02:31;;;;;;;;;4.75;4.00;;;;;;;;5068424;28;46683;-82
2021/08/17 14:04:56;;;;;;;;;4.00;4.00;;;;;;;;5066580;27;46457;-86
2021/08/17 14:07:21;;;;;;;;;4.33;4.33;;;;;;;;5063918;28;46009;-90
2021/08/17 14:09:46;;;;;;;;;3.00;3.00;;;;;;;;5050148;28;45480;-89
2021/08/17 14:12:12;;;;;;;;;5.00;4.33;;;;;;;;5048188;28;45454;-85
2021/08/17 14:14:37;;;;;;;;;4.00;4.00;;;;;;;;5064226;27;45383;-87
2021/08/17 14:17:02;;;;;;;;;3.00;3.00;;;;;;;;5063809;27;45593;-89
2021/08/17 14:19:28;;;;;;;;;3.00;3.00;;;;;;;;5068261;28;45662;-83
2021/08/17 14:21:53;;;;;;;;;2.00;2.00;;;;;;;;5073165;28;45523;-88
2021/08/17 14:24:19;;;;;;;;;2.33;2.33;;;;;;;;5054911;27;45390;-88